createdAt,value
2022-08-10T00:01:54.418Z,2.20
2022-08-10T00:04:23.382Z,2.40
2022-08-10T00:06:53.393Z,2.00
2022-08-10T00:09:21.229Z,2.13
2022-08-10T00:11:48.224Z,2.38
2022-08-10T00:14:15.197Z,2.65
2022-08-10T00:16:42.051Z,2.20
2022-08-10T00:19:09.808Z,2.40
2022-08-10T00:21:37.214Z,2.28
2022-08-10T00:24:04.492Z,2.40
2022-08-10T00:27:52.006Z,2.30
2022-08-10T00:29:19.175Z,2.25
2022-08-10T00:31:58.815Z,2.30
2022-08-10T00:34:28.266Z,2.45
2022-08-10T00:36:55.983Z,2.13
2022-08-10T00:39:23.503Z,2.40
2022-08-10T00:42:07.129Z,2.10
2022-08-10T00:44:40.805Z,2.20
2022-08-10T00:47:22.653Z,2.63
2022-08-10T00:49:56.604Z,2.20
2022-08-10T00:52:25.195Z,2.20
2022-08-10T00:54:53.200Z,2.42
2022-08-10T00:57:20.953Z,2.28
2022-08-10T00:59:58.590Z,2.30
2022-08-10T01:02:29.868Z,2.35
2022-08-10T01:05:01.576Z,2.40
2022-08-10T01:07:32.251Z,2.70
2022-08-10T01:10:58.654Z,2.60
2022-08-10T01:14:20.481Z,2.50
2022-08-10T01:17:05.407Z,2.80
2022-08-10T01:19:54.341Z,2.55
2022-08-10T01:23:01.789Z,2.70
2022-08-10T01:26:11.839Z,2.80
2022-08-10T01:28:57.821Z,2.50
2022-08-10T01:31:40.755Z,2.85
2022-08-10T01:34:18.304Z,2.40
2022-08-10T01:37:05.296Z,2.47
2022-08-10T01:39:39.993Z,2.38
2022-08-10T01:42:11.055Z,2.30
2022-08-10T01:44:48.247Z,2.60
2022-08-10T01:47:36.986Z,2.40
2022-08-10T01:50:59.903Z,2.45
2022-08-10T01:53:40.018Z,2.60
2022-08-10T01:56:13.399Z,2.75
2022-08-10T01:58:42.506Z,3.20
2022-08-10T02:01:16.978Z,2.85
2022-08-10T02:04:05.427Z,2.97
2022-08-10T02:06:40.447Z,2.60
2022-08-10T02:09:08.571Z,2.60
2022-08-10T02:12:05.900Z,2.78
2022-08-10T02:14:34.628Z,2.70
2022-08-10T02:17:59.592Z,2.83
2022-08-10T02:20:04.175Z,2.70
2022-08-10T02:25:09.066Z,3.00
2022-08-10T02:27:36.706Z,2.97
2022-08-10T02:30:06.401Z,3.45
2022-08-10T02:32:40.676Z,3.10
2022-08-10T02:35:21.866Z,3.22
2022-08-10T02:37:51.857Z,3.00
2022-08-10T02:42:18.889Z,2.80
2022-08-10T02:45:29.491Z,3.38
2022-08-10T02:46:36.640Z,3.60
2022-08-10T02:49:05.555Z,3.20
2022-08-10T02:52:07.290Z,3.30
2022-08-10T02:54:50.741Z,3.55
2022-08-10T02:57:29.076Z,3.33
2022-08-10T03:00:07.576Z,3.30
2022-08-10T03:02:39.570Z,3.45
2022-08-10T03:05:25.304Z,3.20
2022-08-10T03:08:05.058Z,3.60
2022-08-10T03:10:39.772Z,3.55
2022-08-10T03:13:09.898Z,3.10
2022-08-10T03:15:39.129Z,3.40
2022-08-10T03:18:07.262Z,3.10
2022-08-10T03:20:39.938Z,3.40
2022-08-10T03:23:15.610Z,3.38
2022-08-10T03:25:52.978Z,3.13
2022-08-10T03:28:30.900Z,3.08
2022-08-10T03:31:00.647Z,3.13
2022-08-10T03:33:32.661Z,3.33
2022-08-10T03:36:43.416Z,3.10
2022-08-10T03:38:53.747Z,3.60
2022-08-10T03:41:58.059Z,3.55
2022-08-10T03:44:32.065Z,3.70
2022-08-10T03:47:02.380Z,3.85
2022-08-10T03:49:31.063Z,4.13
2022-08-10T03:51:59.165Z,4.18
2022-08-10T03:54:27.636Z,3.97
2022-08-10T03:56:55.255Z,4.25
2022-08-10T03:59:22.318Z,4.38
2022-08-10T04:02:45.682Z,3.90
2022-08-10T04:04:38.375Z,3.95
2022-08-10T04:07:06.056Z,4.35
2022-08-10T04:09:54.637Z,3.70
2022-08-10T04:12:24.292Z,3.78
2022-08-10T04:14:53.227Z,4.03
2022-08-10T04:17:59.446Z,4.38
2022-08-10T04:20:19.875Z,4.00
2022-08-10T04:22:54.031Z,4.10
2022-08-10T04:25:24.176Z,4.13
2022-08-10T04:27:52.638Z,4.30
2022-08-10T04:30:20.056Z,4.57
2022-08-10T04:32:54.788Z,4.43
2022-08-10T04:35:23.943Z,4.50
2022-08-10T04:37:52.304Z,4.63
2022-08-10T04:40:28.354Z,4.32
2022-08-10T04:43:03.353Z,4.60
2022-08-10T04:45:50.107Z,4.05
2022-08-10T04:48:43.325Z,4.57
2022-08-10T04:51:17.526Z,4.30
2022-08-10T04:54:05.634Z,4.55
2022-08-10T04:56:36.522Z,4.28
2022-08-10T04:59:05.651Z,4.78
2022-08-10T05:02:21.359Z,5.03
2022-08-10T05:04:35.055Z,6.60
2022-08-10T05:07:09.329Z,5.28
2022-08-10T05:10:05.057Z,5.13
2022-08-10T05:12:25.275Z,5.15
2022-08-10T05:14:52.319Z,5.35
2022-08-10T05:17:22.305Z,5.38
2022-08-10T05:20:03.227Z,5.57
2022-08-10T05:22:35.689Z,5.18
2022-08-10T05:25:03.665Z,5.22
2022-08-10T05:27:30.731Z,5.30
2022-08-10T05:30:01.306Z,5.50
2022-08-10T05:32:58.983Z,5.38
2022-08-10T05:35:21.699Z,5.60
2022-08-10T05:38:09.519Z,5.38
2022-08-10T05:40:39.457Z,5.43
2022-08-10T05:43:07.072Z,5.45
2022-08-10T05:45:34.014Z,5.60
2022-08-10T05:48:54.952Z,5.50
2022-08-10T05:51:09.836Z,5.75
2022-08-10T05:54:02.247Z,5.60
2022-08-10T05:56:26.401Z,5.55
2022-08-10T05:58:53.562Z,6.35
2022-08-10T06:01:25.080Z,6.25
2022-08-10T06:03:58.622Z,5.90
2022-08-10T06:06:28.128Z,6.57
2022-08-10T06:08:57.407Z,5.82
2022-08-10T06:12:26.638Z,6.82
2022-08-10T06:14:34.850Z,6.10
2022-08-10T06:17:04.152Z,5.80
2022-08-10T06:19:31.687Z,5.93
2022-08-10T06:22:00.965Z,5.88
2022-08-10T06:24:31.298Z,5.68
2022-08-10T06:26:59.674Z,4.80
2022-08-10T06:29:31.371Z,4.95
2022-08-10T06:32:00.019Z,5.20
2022-08-10T06:34:34.382Z,4.95
2022-08-10T06:37:08.101Z,4.65
2022-08-10T06:39:36.638Z,4.93
2022-08-10T06:42:18.037Z,5.50
2022-08-10T06:45:00.825Z,4.90
2022-08-10T06:48:07.589Z,4.72
2022-08-10T06:50:55.958Z,5.72
2022-08-10T06:53:53.787Z,6.10
2022-08-10T06:56:37.668Z,6.13
2022-08-10T06:59:30.256Z,4.88
2022-08-10T07:02:10.572Z,4.60
2022-08-10T07:04:47.009Z,5.40
2022-08-10T07:07:26.177Z,4.50
2022-08-10T07:09:57.710Z,4.43
2022-08-10T07:12:26.038Z,3.90
2022-08-10T07:14:54.385Z,4.07
2022-08-10T07:17:24.632Z,4.60
2022-08-10T07:20:01.612Z,4.30
2022-08-10T07:23:01.620Z,4.10
2022-08-10T07:25:25.218Z,4.10
2022-08-10T07:27:58.889Z,4.30
2022-08-10T07:30:31.793Z,4.35
2022-08-10T07:33:01.246Z,4.03
2022-08-10T07:35:36.517Z,4.07
2022-08-10T07:38:16.954Z,3.87
2022-08-10T07:40:45.789Z,3.53
2022-08-10T07:43:13.811Z,4.07
2022-08-10T07:45:41.233Z,4.00
2022-08-10T07:48:15.945Z,3.40
2022-08-10T07:50:43.886Z,3.70
2022-08-10T07:53:19.640Z,3.67
2022-08-10T07:56:05.363Z,3.80
2022-08-10T07:58:46.419Z,3.70
2022-08-10T08:01:21.744Z,4.00
2022-08-10T08:04:11.438Z,3.58
2022-08-10T08:06:37.721Z,3.60
2022-08-10T08:09:05.630Z,3.70
2022-08-10T08:11:33.225Z,3.30
2022-08-10T08:14:02.014Z,3.22
2022-08-10T08:16:31.571Z,3.40
2022-08-10T08:24:10.688Z,3.35
2022-08-10T08:24:38.221Z,3.45
2022-08-10T08:27:07.750Z,3.83
2022-08-10T08:29:37.762Z,3.22
2022-08-10T08:32:06.377Z,3.40
2022-08-10T08:34:46.590Z,2.88
2022-08-10T08:37:18.825Z,3.58
2022-08-10T08:40:14.675Z,3.58
2022-08-10T08:43:22.292Z,3.67
2022-08-10T08:46:37.539Z,2.95
2022-08-10T08:50:05.240Z,3.75
2022-08-10T08:52:57.468Z,3.63
2022-08-10T08:56:05.654Z,3.30
2022-08-10T08:58:58.465Z,3.08
2022-08-10T09:02:31.483Z,3.50
2022-08-10T09:05:23.043Z,3.08
2022-08-10T09:08:17.820Z,3.10
2022-08-10T09:11:27.442Z,2.90
2022-08-10T09:14:32.514Z,2.70
2022-08-10T09:17:21.325Z,2.95
2022-08-10T09:20:08.280Z,3.00
2022-08-10T09:23:12.377Z,2.60
2022-08-10T09:25:52.664Z,3.10
2022-08-10T09:28:30.067Z,2.38
2022-08-10T09:31:22.423Z,2.50
2022-08-10T09:36:24.753Z,2.65
2022-08-10T09:37:20.754Z,2.50
2022-08-10T09:40:48.540Z,2.45
2022-08-10T09:43:25.861Z,2.80
2022-08-10T09:46:11.908Z,2.58
2022-08-10T09:49:05.405Z,3.20
2022-08-10T09:52:02.808Z,2.40
2022-08-10T09:55:03.268Z,2.38
2022-08-10T09:57:46.632Z,2.78
2022-08-10T10:00:21.173Z,2.15
2022-08-10T10:03:26.136Z,2.45
2022-08-10T10:06:24.347Z,2.22
2022-08-10T10:09:11.015Z,2.40
2022-08-10T10:12:09.656Z,2.75
2022-08-10T10:15:24.333Z,1.98
2022-08-10T10:18:13.501Z,1.98
2022-08-10T10:21:23.910Z,1.80
2022-08-10T10:24:48.132Z,1.60
2022-08-10T10:27:34.609Z,1.85
2022-08-10T10:30:11.852Z,2.03
2022-08-10T10:33:07.828Z,1.85
2022-08-10T10:35:55.019Z,1.88
2022-08-10T10:38:27.031Z,1.95
2022-08-10T10:42:03.174Z,1.77
2022-08-10T10:45:11.434Z,1.80
2022-08-10T10:48:17.627Z,1.77
2022-08-10T10:51:32.189Z,1.70
2022-08-10T10:54:42.627Z,1.80
2022-08-10T10:57:58.491Z,1.70
2022-08-10T11:00:18.536Z,2.15
2022-08-10T11:03:22.035Z,1.92
2022-08-10T11:06:10.392Z,2.08
2022-08-10T11:08:44.826Z,1.83
2022-08-10T11:12:00.327Z,1.80
2022-08-10T11:14:41.594Z,2.22
2022-08-10T11:17:20.296Z,2.20
2022-08-10T11:20:18.151Z,1.40
2022-08-10T11:22:59.937Z,1.77
2022-08-10T11:25:40.336Z,2.10
2022-08-10T11:28:50.152Z,1.70
2022-08-10T11:31:38.667Z,2.00
2022-08-10T11:34:47.235Z,2.17
2022-08-10T11:38:31.618Z,1.90
2022-08-10T11:40:55.902Z,1.88
2022-08-10T11:43:28.871Z,1.90
2022-08-10T11:46:28.814Z,2.00
2022-08-10T11:49:12.577Z,1.90
2022-08-10T11:51:48.335Z,1.75
2022-08-10T11:54:25.481Z,2.03
2022-08-10T11:57:02.477Z,1.90
2022-08-10T11:59:58.229Z,2.17
2022-08-10T12:02:40.999Z,2.10
2022-08-10T12:05:12.420Z,2.03
2022-08-10T12:10:07.010Z,2.30
2022-08-10T12:10:55.005Z,2.10
2022-08-10T12:14:17.717Z,1.70
2022-08-10T12:16:43.356Z,1.88
2022-08-10T12:19:28.480Z,2.08
2022-08-10T12:22:07.845Z,1.80
2022-08-10T12:24:49.881Z,1.85
2022-08-10T12:27:24.336Z,1.75
2022-08-10T12:30:01.819Z,1.88
2022-08-10T12:33:07.938Z,1.60
2022-08-10T12:36:14.946Z,2.10
2022-08-10T12:39:12.725Z,1.90
2022-08-10T12:42:06.596Z,2.00
2022-08-10T12:44:48.915Z,1.75
2022-08-10T12:47:35.215Z,1.90
2022-08-10T12:50:33.548Z,1.63
2022-08-10T12:53:52.829Z,1.60
2022-08-10T12:56:33.013Z,1.70
2022-08-10T12:59:04.927Z,1.92
2022-08-10T13:02:08.056Z,1.60
2022-08-10T13:04:37.648Z,1.70
2022-08-10T13:07:06.861Z,1.50
2022-08-10T13:09:56.689Z,1.60
2022-08-10T13:12:38.031Z,1.75
2022-08-10T13:15:47.791Z,1.90
2022-08-10T13:18:18.733Z,1.80
2022-08-10T13:20:52.690Z,1.90
2022-08-10T13:23:27.058Z,1.88
2022-08-10T13:25:58.591Z,1.80
2022-08-10T13:28:39.674Z,1.50
2022-08-10T13:31:16.587Z,1.43
2022-08-10T13:34:38.814Z,1.63
2022-08-10T13:36:51.087Z,1.50
2022-08-10T13:39:25.525Z,1.70
2022-08-10T13:41:54.820Z,1.60
2022-08-10T13:44:49.972Z,1.58
2022-08-10T13:47:19.750Z,1.80
2022-08-10T13:50:08.392Z,1.83
2022-08-10T13:52:36.980Z,1.60
2022-08-10T13:55:14.854Z,1.50
2022-08-10T13:57:50.633Z,1.75
2022-08-10T14:00:38.594Z,1.60
2022-08-10T14:03:14.887Z,1.70
2022-08-10T14:05:49.921Z,1.55
2022-08-10T14:08:21.700Z,1.60
2022-08-10T14:11:09.604Z,1.40
2022-08-10T14:13:52.231Z,2.00
2022-08-10T14:16:23.848Z,1.65
2022-08-10T14:18:55.563Z,1.48
2022-08-10T14:21:25.838Z,1.67
2022-08-10T14:23:53.932Z,1.40
2022-08-10T14:26:30.768Z,1.60
2022-08-10T14:29:05.711Z,1.50
2022-08-10T14:32:03.459Z,1.70
2022-08-10T14:36:17.417Z,1.35
2022-08-10T14:37:40.265Z,1.50
2022-08-10T14:40:13.741Z,1.50
2022-08-10T14:42:56.518Z,1.50
2022-08-10T14:45:44.139Z,1.77
2022-08-10T14:48:17.941Z,1.45
2022-08-10T14:50:55.966Z,2.13
2022-08-10T14:53:27.461Z,1.80
2022-08-10T14:56:01.049Z,2.10
2022-08-10T14:59:05.411Z,1.85
2022-08-10T15:02:00.401Z,1.50
2022-08-10T15:04:26.873Z,1.60
2022-08-10T15:07:20.472Z,1.60
2022-08-10T15:10:00.634Z,1.58
2022-08-10T15:12:38.855Z,1.65
2022-08-10T15:15:11.378Z,1.38
2022-08-10T15:17:50.228Z,1.50
2022-08-10T15:20:26.216Z,1.50
2022-08-10T15:23:00.067Z,1.50
2022-08-10T15:25:30.254Z,1.45
2022-08-10T15:28:08.042Z,1.70
2022-08-10T15:30:47.006Z,1.60
2022-08-10T15:34:03.784Z,1.50
2022-08-10T15:37:02.429Z,1.40
2022-08-10T15:42:54.182Z,1.23
2022-08-10T15:45:22.552Z,2.00
2022-08-10T15:48:03.305Z,1.60
2022-08-10T15:50:44.246Z,1.83
2022-08-10T15:53:15.650Z,1.48
2022-08-10T15:58:39.181Z,1.80
2022-08-10T16:02:04.581Z,1.60
2022-08-10T16:04:16.202Z,1.90
2022-08-10T16:07:02.575Z,2.20
2022-08-10T16:10:23.039Z,2.50
2022-08-10T16:12:39.017Z,2.33
2022-08-10T16:15:17.719Z,2.28
2022-08-10T16:17:56.154Z,2.40
2022-08-10T16:20:55.722Z,1.90
2022-08-10T16:23:35.695Z,1.98
2022-08-10T16:26:15.241Z,1.90
2022-08-10T16:29:18.122Z,1.95
2022-08-10T16:31:56.896Z,2.00
2022-08-10T16:34:27.268Z,1.80
2022-08-10T16:37:13.692Z,1.70
2022-08-10T16:40:00.383Z,2.05
2022-08-10T16:42:33.146Z,1.50
2022-08-10T16:45:19.428Z,1.77
2022-08-10T16:47:51.029Z,1.63
2022-08-10T16:50:41.398Z,1.50
2022-08-10T16:53:13.432Z,1.77
2022-08-10T16:55:50.532Z,1.80
2022-08-10T16:58:33.436Z,2.00
2022-08-10T17:01:07.256Z,1.83
2022-08-10T17:04:08.254Z,2.05
2022-08-10T17:06:56.153Z,1.77
2022-08-10T17:09:36.465Z,1.73
2022-08-10T17:12:13.341Z,2.00
2022-08-10T17:14:43.405Z,1.65
2022-08-10T17:17:27.719Z,2.00
2022-08-10T17:20:31.140Z,3.30
2022-08-10T17:22:54.735Z,1.90
2022-08-10T17:25:45.725Z,1.80
2022-08-10T17:28:32.669Z,1.90
2022-08-10T17:31:48.042Z,1.80
2022-08-10T17:34:13.842Z,2.13
2022-08-10T17:36:42.989Z,1.92
2022-08-10T17:39:13.112Z,2.22
2022-08-10T17:41:42.532Z,2.30
2022-08-10T17:44:10.606Z,2.25
2022-08-10T17:46:39.695Z,2.00
2022-08-10T17:49:10.065Z,1.92
2022-08-10T17:51:43.513Z,1.80
2022-08-10T17:54:33.991Z,2.13
2022-08-10T17:57:18.772Z,1.95
2022-08-10T17:59:48.357Z,1.92
2022-08-10T18:02:24.373Z,2.08
2022-08-10T18:04:54.912Z,2.22
2022-08-10T18:07:31.302Z,2.05
2022-08-10T18:10:00.724Z,2.28
2022-08-10T18:12:40.956Z,1.77
2022-08-10T18:15:13.875Z,1.80
2022-08-10T18:17:46.713Z,1.85
2022-08-10T18:20:20.361Z,1.80
2022-08-10T18:22:56.405Z,1.63
2022-08-10T18:25:32.781Z,1.92
2022-08-10T18:28:05.011Z,1.70
2022-08-10T18:30:36.215Z,1.80
2022-08-10T18:33:09.721Z,1.80
2022-08-10T18:35:37.499Z,2.05
2022-08-10T18:38:06.499Z,2.00
2022-08-10T18:40:36.855Z,1.83
2022-08-10T18:44:11.097Z,1.90
2022-08-10T18:45:58.958Z,2.25
2022-08-10T18:48:56.403Z,1.80
2022-08-10T18:51:28.097Z,1.98
2022-08-10T18:54:05.651Z,1.83
2022-08-10T18:57:13.681Z,1.88
2022-08-10T19:00:08.245Z,1.83
2022-08-10T19:02:48.078Z,2.10
2022-08-10T19:05:52.985Z,1.95
2022-08-10T19:08:51.567Z,1.65
2022-08-10T19:12:32.101Z,1.90
2022-08-10T19:15:42.247Z,2.08
2022-08-10T19:18:56.260Z,2.20
2022-08-10T19:21:45.464Z,2.10
2022-08-10T19:24:26.410Z,1.80
2022-08-10T19:27:28.916Z,1.92
2022-08-10T19:30:13.385Z,2.15
2022-08-10T19:33:08.218Z,2.00
2022-08-10T19:36:13.142Z,2.05
2022-08-10T19:39:28.605Z,2.10
2022-08-10T19:42:11.688Z,2.42
2022-08-10T19:45:07.132Z,1.90
2022-08-10T19:47:59.658Z,1.90
2022-08-10T19:50:41.702Z,2.17
2022-08-10T19:53:31.999Z,2.40
2022-08-10T19:56:34.555Z,2.30
2022-08-10T20:00:17.558Z,2.30
2022-08-10T20:02:30.104Z,2.30
2022-08-10T20:05:31.206Z,2.08
2022-08-10T20:08:20.214Z,2.40
2022-08-10T20:11:09.512Z,2.33
2022-08-10T20:14:44.014Z,2.33
2022-08-10T20:17:51.190Z,2.53
2022-08-10T20:20:49.739Z,2.08
2022-08-10T20:23:35.382Z,2.20
2022-08-10T20:26:23.209Z,2.35
2022-08-10T20:28:58.078Z,2.30
2022-08-10T20:31:39.975Z,2.22
2022-08-10T20:34:47.518Z,2.60
2022-08-10T20:37:45.294Z,2.67
2022-08-10T20:40:46.911Z,2.80
2022-08-10T20:43:24.757Z,2.35
2022-08-10T20:46:18.720Z,2.70
2022-08-10T20:49:18.289Z,2.40
2022-08-10T20:51:58.297Z,2.75
2022-08-10T20:54:48.422Z,2.75
2022-08-10T20:58:03.932Z,2.72
2022-08-10T21:00:18.489Z,2.70
2022-08-10T21:03:15.897Z,3.25
2022-08-10T21:06:42.072Z,3.03
2022-08-10T21:10:00.939Z,2.80
2022-08-10T21:13:25.033Z,2.70
2022-08-10T21:16:28.944Z,2.80
2022-08-10T21:19:22.619Z,2.95
2022-08-10T21:22:20.818Z,3.60
2022-08-10T21:25:02.478Z,3.28
2022-08-10T21:28:12.647Z,3.45
2022-08-10T21:31:23.669Z,3.33
2022-08-10T21:34:16.808Z,3.40
2022-08-10T21:36:59.323Z,3.08
2022-08-10T21:39:51.872Z,3.53
2022-08-10T21:43:43.919Z,3.65
2022-08-10T21:47:01.637Z,3.75
2022-08-10T21:50:16.428Z,3.88
2022-08-10T21:53:43.817Z,4.00
2022-08-10T21:56:44.491Z,4.32
2022-08-10T21:59:42.433Z,4.15
2022-08-10T22:02:31.893Z,4.47
2022-08-10T22:05:20.367Z,4.30
2022-08-10T22:08:14.985Z,4.90
2022-08-10T22:11:15.774Z,5.03
2022-08-10T22:14:06.322Z,4.85
2022-08-10T22:17:02.716Z,5.20
2022-08-10T22:20:01.481Z,5.60
2022-08-10T22:23:41.065Z,5.45
2022-08-10T22:27:07.368Z,5.13
2022-08-10T22:30:13.661Z,5.25
2022-08-10T22:33:33.446Z,5.13
2022-08-10T22:37:08.105Z,5.20
2022-08-10T22:40:25.804Z,5.70
2022-08-10T22:43:14.069Z,4.93
2022-08-10T22:46:25.734Z,5.13
2022-08-10T22:49:01.761Z,4.90
2022-08-10T22:51:54.831Z,4.50
2022-08-10T22:55:09.463Z,4.50
2022-08-10T22:58:05.136Z,4.53
2022-08-10T23:00:32.939Z,4.82
2022-08-10T23:03:22.173Z,4.60
2022-08-10T23:06:06.726Z,4.43
2022-08-10T23:08:44.420Z,4.70
2022-08-10T23:11:22.300Z,4.70
2022-08-10T23:14:06.162Z,5.00
2022-08-10T23:17:03.070Z,4.57
2022-08-10T23:19:33.272Z,4.45
2022-08-10T23:22:07.269Z,5.40
2022-08-10T23:24:36.303Z,4.50
2022-08-10T23:27:09.086Z,4.38
2022-08-10T23:30:09.935Z,4.32
2022-08-10T23:32:36.839Z,4.20
2022-08-10T23:36:30.007Z,4.97
2022-08-10T23:38:02.190Z,5.43
2022-08-10T23:40:29.338Z,5.22
2022-08-10T23:42:58.200Z,4.50
2022-08-10T23:45:28.082Z,4.50
2022-08-10T23:48:01.267Z,4.50
2022-08-10T23:50:29.034Z,4.47
2022-08-10T23:53:03.021Z,4.40
2022-08-10T23:55:49.329Z,4.10
2022-08-10T23:58:33.199Z,4.15
